KOKK/OKK METAR and TAF weather

Enter ICAO airport designator
Station Type Date Time Source
KOKK METAR 2019/12/06 13:56 UTC NOAA

KOKK 061356Z AUTO 34011KT 8SM OVC013 05/03 A3009 RMK AO2 SLP196 T00500033


Station Type Date Time Source
KOKK Decoded METAR 2019/12/06 13:56 UTC NOAA

Kokomo, Kokomo Municipal Airport, IN, United States (KOKK) 40-32N 086-04W
Dec 06, 2019 - 08:56 AM EST / 2019.12.06 1356 UTC
Wind: from the NNW (340 degrees) at 13 MPH (11 KT):0
Visibility: 8 mile(s):0
Sky conditions: overcast
Temperature: 41.0 F (5.0 C)
Dew Point: 37.9 F (3.3 C)
Relative Humidity: 88%
Pressure (altimeter): 30.09 in. Hg (1018 hPa)
ob: KOKK 061356Z AUTO 34011KT 8SM OVC013 05/03 A3009 RMK AO2 SLP196 T00500033
cycle: 14

Station Type Date Time Source
KOKK TAF UTC NOAA

Error!

Example: see airport list